KCWN

Cheyenne Mountain Airport

Cheyenne Mountain, Colorado, USA
METAR KCWN 212307Z AUTO 33010KT 9SM SCT030 BKN090 17/09 A3037 RMK AO2 LTG DSNT SE AND SW SHRAB06E07 SLP135 $
Observed Flight Rules
Aug-21 @ 23:07 UTC (39 minutes ago) Visual Flight Rules
Wind Visibility Clouds
330° at 10 knots 9 miles
  • Scattered at 3,000' AGL
  • Broken at 9,000' AGL
Temperatures Readings
Current 17°C / 63°F
Dewpoint 9°C / 48°F
Humidity 59%
Altimeter 30.37" Hg
Pressure 1013.5 hPa
Elevation 2040
METAR KCWN 212307Z AUTO 33010KT 9SM SCT030 BKN090 17/09 A3037 RMK AO2 LTG DSNT SE AND SW SHRAB06E07 SLP135 $
Observed Flight Rules
Aug-21 @ 23:07 UTC
(39 minutes ago)
VFR
Wind Visibility
330° at 10 knots 9 miles
Clouds
  • Scattered at 3,000' AGL
  • Broken at 9,000' AGL
Temperature Dewpoint
17°C / 63°F 9°C / 48°F
Humidity Altimeter Pressure
59% 30.37" Hg 1013.5 hPa